Data for 07/25/2018

Time Sea-Level Adjusted Pressure Absolute Pressure Temperature Relative Humidity Dew Point   
(mb) (inHg) (mb) (inHg) (C) (F) (%) (C) (F)
00:05 1025 30.27 854 25.22 19.7 67.4 46 8 46.4
00:10 1025 30.27 854 25.22 19.7 67.4 47 8.1 46.5
00:15 1025 30.27 854 25.22 19.6 67.2 47 8.2 46.7
00:20 1025 30.27 854 25.22 19.4 67 48 8.2 46.7
00:25 1025 30.27 854 25.22 19.4 66.9 48 8.1 46.6
00:30 1025 30.27 854 25.22 19.4 66.8 48 8.1 46.6
00:35 1025 30.27 854 25.22 19.3 66.7 49 8.3 46.9
00:40 1025 30.27 854 25.22 19.1 66.3 49 8.3 47
00:45 1025 30.27 854 25.22 18.9 66.1 49 8.2 46.8
00:50 1025 30.27 854 25.22 18.9 66.1 49 8.1 46.7
00:55 1025 30.27 854 25.22 18.9 66.1 49 8.1 46.6
01:00 1025 30.27 854 25.22 18.9 66 50 8.3 46.9
01:05 1025 30.27 854 25.22 18.7 65.7 50 8.3 46.9
01:10 1025 30.27 854 25.22 18.6 65.4 51 8.3 46.9
01:15 1025 30.27 854 25.22 18.5 65.3 51 8.2 46.7
01:20 1025 30.27 854 25.22 18.5 65.4 50 8.2 46.7
01:25 1025 30.27 854 25.22 18.6 65.5 50 8.2 46.7
01:30 1025 30.27 854 25.22 18.7 65.6 50 8.1 46.6
01:35 1025 30.27 854 25.22 18.6 65.5 50 8.2 46.7
01:40 1025 30.27 854 25.22 18.5 65.4 51 8.2 46.8
01:45 1025 30.27 854 25.22 18.4 65.1 51 8.3 46.9
01:50 1025 30.27 854 25.22 18.3 64.9 52 8.3 46.9
01:55 1025 30.27 854 25.22 18.2 64.7 52 8.2 46.8
02:00 1025 30.27 854 25.22 18.1 64.5 52 8.3 46.9
02:05 1025 30.27 854 25.22 17.9 64.3 53 8.2 46.8
02:10 1025 30.27 854 25.22 18 64.4 51 7.9 46.3
02:15 1025 30.27 854 25.22 18.2 64.7 51 8 46.4
02:20 1025 30.27 854 25.22 18.3 64.9 50 7.9 46.2
02:25 1025 30.27 854 25.22 18.3 64.9 50 7.9 46.3
02:30 1025 30.27 854 25.22 18.3 64.9 51 8 46.4
02:35 1025 30.27 854 25.22 18.2 64.8 51 8 46.3
02:40 1025 30.27 854 25.22 18.2 64.7 51 7.9 46.2
02:45 1025 30.27 855 25.25 18.2 64.7 50 7.8 46
02:50 1025 30.27 855 25.25 18.1 64.7 51 7.8 46.1
02:55 1025 30.27 855 25.25 18.1 64.5 51 7.8 46
03:00 1025 30.27 855 25.25 18.2 64.7 50 7.6 45.7
03:05 1025 30.27 855 25.25 18.2 64.7 50 7.8 46
03:10 1026 30.3 855 25.25 18 64.4 51 7.8 46.1
03:15 1026 30.3 855 25.25 18 64.3 50 7.5 45.6
03:20 1026 30.3 855 25.25 18.1 64.6 50 7.5 45.5
03:25 1026 30.3 855 25.25 18.2 64.7 49 7.5 45.4
03:30 1026 30.3 855 25.25 18.2 64.8 49 7.5 45.5
03:35 1026 30.3 855 25.25 18.1 64.5 50 7.6 45.7
03:40 1026 30.3 855 25.25 17.9 64.2 50 7.5 45.4
03:45 1026 30.3 855 25.25 17.8 64.1 50 7.4 45.3
03:50 1026 30.3 855 25.25 17.7 63.8 51 7.5 45.4
03:55 1026 30.3 855 25.25 17.5 63.5 51 7.4 45.4
04:00 1026 30.3 855 25.25 17.2 63 52 7.4 45.4
04:05 1026 30.3 855 25.25 17 62.5 52 7.2 44.9
04:10 1026 30.3 855 25.25 16.7 62.1 53 7.1 44.7
04:15 1026 30.3 855 25.25 16.5 61.7 53 7.1 44.8
04:20 1026 30.3 855 25.25 16.2 61.2 54 7.1 44.7
04:25 1026 30.3 855 25.25 16 60.8 55 7.1 44.8
04:30 1026 30.3 855 25.25 15.8 60.4 56 7.1 44.8
04:35 1026 30.3 855 25.25 15.6 60.2 56 7 44.7
04:40 1026 30.3 855 25.25 15.5 60 57 7.1 44.8
04:45 1026 30.3 855 25.25 15.3 59.6 58 7.1 44.8
04:50 1026 30.3 855 25.25 15.2 59.4 58 7.1 44.9
04:55 1026 30.3 855 25.25 15.1 59.2 59 7.1 44.8
05:00 1026 30.3 855 25.25 15 59 59 7.2 44.9
05:05 1026 30.3 855 25.25 14.9 58.8 59 7.1 44.8
05:10 1026 30.3 855 25.25 14.8 58.7 60 7.2 44.9
05:15 1026 30.3 856 25.28 14.7 58.5 60 7.2 44.9
05:20 1026 30.3 856 25.28 14.7 58.4 61 7.2 45
05:25 1026 30.3 856 25.28 14.6 58.3 61 7.3 45.1
05:30 1026 30.3 856 25.28 14.6 58.2 61 7.3 45.1
05:35 1027 30.33 856 25.28 14.5 58.2 62 7.3 45.2
05:40 1027 30.33 856 25.28 14.5 58.1 62 7.4 45.3
05:45 1027 30.33 856 25.28 14.5 58 62 7.4 45.4
05:50 1027 30.33 856 25.28 14.5 58 62 7.4 45.4
05:55 1027 30.33 856 25.28 14.5 58.1 62 7.4 45.4
06:00 1027 30.33 856 25.28 14.5 58.1 63 7.6 45.6
06:05 1027 30.33 856 25.28 14.5 58.2 62 7.5 45.6
06:10 1027 30.33 856 25.28 14.6 58.3 62 7.5 45.6
06:15 1027 30.33 856 25.28 14.7 58.4 62 7.6 45.6
06:20 1027 30.33 856 25.28 14.7 58.4 62 7.6 45.7
06:25 1027 30.33 856 25.28 14.7 58.5 62 7.6 45.7
06:30 1027 30.33 856 25.28 14.8 58.7 62 7.6 45.7
06:35 1027 30.33 856 25.28 14.9 58.9 61 7.6 45.7
06:40 1027 30.33 856 25.28 15 59 62 7.7 45.9
06:45 1027 30.33 857 25.31 15.1 59.1 61 7.6 45.7
06:50 1027 30.33 857 25.31 15 59.1 61 7.7 45.9
06:55 1027 30.33 857 25.31 15.2 59.4 61 7.7 45.8
07:00 1027 30.33 857 25.31 15.4 59.6 60 7.8 46
07:05 1027 30.33 857 25.31 15.3 59.6 60 7.8 46
07:10 1027 30.33 857 25.31 15.5 59.8 60 7.8 46
07:15 1027 30.33 857 25.31 15.5 59.8 60 7.8 46
07:20 1027 30.33 857 25.31 15.4 59.7 59 7.6 45.7
07:25 1027 30.33 857 25.31 15.6 60.1 59 7.8 46
07:30 1028 30.36 857 25.31 15.8 60.5 59 7.8 46.1
07:35 1028 30.36 857 25.31 15.7 60.3 59 7.7 45.9
07:40 1028 30.36 857 25.31 15.9 60.6 58 7.7 45.8
07:45 1028 30.36 857 25.31 16.3 61.3 57 7.9 46.2
07:50 1028 30.36 857 25.31 16.5 61.7 56 7.9 46.2
07:55 1028 30.36 857 25.31 16.5 61.6 56 7.9 46.2
08:00 1028 30.36 857 25.31 16.5 61.7 56 7.9 46.2
08:05 1028 30.36 857 25.31 16.6 61.9 55 7.7 45.8
08:10 1028 30.36 857 25.31 16.9 62.3 55 7.9 46.3
08:15 1028 30.36 857 25.31 17 62.6 54 7.7 45.9
08:20 1028 30.36 857 25.31 17.6 63.6 53 7.9 46.2
08:25 1028 30.36 857 25.31 17.3 63.1 53 7.8 46
08:30 1028 30.36 857 25.31 17.1 62.8 54 7.9 46.2
08:35 1028 30.36 857 25.31 17.3 63.1 54 7.9 46.3
08:40 1028 30.36 857 25.31 17.8 64 53 8.1 46.7
08:45 1027 30.33 857 25.31 17.6 63.6 53 8 46.5
08:50 1027 30.33 857 25.31 18 64.4 52 8.1 46.6
08:55 1027 30.33 857 25.31 18.1 64.6 52 8.2 46.7
09:00 1027 30.33 857 25.31 18.1 64.6 51 7.9 46.2
09:05 1027 30.33 857 25.31 18.5 65.3 51 8.4 47.1
09:10 1027 30.33 856 25.28 18.5 65.2 51 8.3 46.9
09:15 1027 30.33 856 25.28 18.6 65.4 50 8.1 46.5
09:20 1027 30.33 856 25.28 19 66.2 49 8.1 46.6
09:25 1027 30.33 856 25.28 18.8 65.9 50 8.3 46.9
09:30 1027 30.33 856 25.28 18.9 66 50 8.3 46.9
09:35 1027 30.33 856 25.28 19.2 66.5 49 8.2 46.7
09:40 1027 30.33 856 25.28 19.7 67.4 48 8.4 47.1
09:45 1027 30.33 856 25.28 19.8 67.6 49 8.8 47.8
09:50 1027 30.33 856 25.28 19.8 67.7 48 8.6 47.4
09:55 1027 30.33 856 25.28 19.9 67.7 48 8.6 47.5
10:00 1027 30.33 856 25.28 19.9 67.9 48 8.6 47.6
10:05 1027 30.33 856 25.28 20.8 69.5 44 8.4 47.1
10:10 1027 30.33 856 25.28 20.7 69.2 46 8.6 47.5
10:15 1027 30.33 856 25.28 20.9 69.5 44 8.2 46.8
10:20 1027 30.33 856 25.28 21.1 70 44 8.5 47.3
10:25 1027 30.33 856 25.28 20.8 69.5 45 8.6 47.5
10:30 1027 30.33 856 25.28 21.4 70.5 45 9 48.2
10:35 1027 30.33 856 25.28 21.7 71.1 44 9.1 48.3
10:40 1027 30.33 856 25.28 21.7 71 42 8.2 46.8
10:45 1027 30.33 856 25.28 21.5 70.7 44 9 48.3
10:50 1027 30.33 856 25.28 21.6 70.9 44 8.9 48
10:55 1027 30.33 856 25.28 21.5 70.6 45 9.1 48.4
11:00 1027 30.33 856 25.28 21.3 70.3 44 8.8 47.8
11:05 1027 30.33 856 25.28 21.3 70.4 46 9.3 48.8
11:10 1027 30.33 856 25.28 22.1 71.8 43 9.1 48.4
11:15 1027 30.33 856 25.28 22.4 72.3 41 8.7 47.7
11:20 1027 30.33 856 25.28 22.8 73.1 42 9.5 49.1
11:25 1027 30.33 856 25.28 22.2 72 42 8.9 48
11:30 1027 30.33 856 25.28 23.5 74.4 39 9.1 48.4
11:35 1027 30.33 856 25.28 24.1 75.4 38 9 48.2
11:40 1027 30.33 856 25.28 23.7 74.7 40 9.4 48.9
11:45 1026 30.3 856 25.28 23.7 74.6 39 9.1 48.3
11:50 1026 30.3 856 25.28 24.5 76.2 39 9.7 49.5
11:55 1026 30.3 856 25.28 24.3 75.7 36 8.7 47.6
12:00 1026 30.3 856 25.28 25.1 77.1 36 9 48.2
12:05 1026 30.3 855 25.25 24.7 76.5 37 9.4 48.9
12:10 1026 30.3 855 25.25 24.9 76.8 37 9.4 48.8
12:15 1026 30.3 855 25.25 25.1 77.2 36 9.1 48.4
12:20 1026 30.3 855 25.25 24.8 76.7 37 9.4 48.9
12:25 1026 30.3 855 25.25 24.7 76.5 35 8.6 47.4
12:30 1026 30.3 855 25.25 25.2 77.4 35 9 48.2
12:35 1026 30.3 855 25.25 25.8 78.5 35 9.6 49.4
12:40 1026 30.3 855 25.25 25.6 78.1 35 9.1 48.5
12:45 1026 30.3 855 25.25 25.8 78.5 35 9.4 48.8
12:50 1026 30.3 855 25.25 26.1 79 34 9.2 48.6
12:55 1026 30.3 855 25.25 26.4 79.6 32 8.5 47.3
13:00 1026 30.3 855 25.25 26.7 80 33 9.3 48.8
13:05 1026 30.3 855 25.25 26.6 79.8 33 9 48.2
13:10 1026 30.3 855 25.25 26.9 80.5 32 9.2 48.5
13:15 1026 30.3 855 25.25 25.8 78.5 32 8.3 47
13:20 1026 30.3 855 25.25 25.3 77.6 32 7.9 46.2
13:25 1026 30.3 855 25.25 25.8 78.4 34 8.8 47.9
13:30 1026 30.3 855 25.25 25.9 78.6 34 9 48.1
13:35 1026 30.3 855 25.25 26.2 79.2 34 9.2 48.6
13:40 1026 30.3 855 25.25 25.8 78.4 35 9.3 48.7
13:45 1026 30.3 855 25.25 25.6 78.2 31 7.6 45.6
13:50 1026 30.3 855 25.25 26.2 79.2 31 8.1 46.5
13:55 1026 30.3 855 25.25 26.6 79.9 32 8.7 47.7
14:00 1026 30.3 855 25.25 26.2 79.1 31 7.8 46.1
14:05 1026 30.3 855 25.25 26.3 79.4 29 7.3 45.1
14:10 1026 30.3 855 25.25 26.5 79.6 31 8 46.5
14:15 1025 30.27 855 25.25 26.5 79.6 28 6.9 44.5
14:20 1025 30.27 855 25.25 26.2 79.1 28 6.7 44
14:25 1025 30.27 855 25.25 26.3 79.3 26 5.3 41.6
14:30 1025 30.27 855 25.25 25.8 78.5 28 6.1 42.9
14:35 1025 30.27 855 25.25 26.7 80 26 5.8 42.4
14:40 1025 30.27 855 25.25 26.9 80.4 25 5.4 41.7
14:45 1025 30.27 855 25.25 27.5 81.4 22 4.3 39.7
14:50 1025 30.27 854 25.22 27.9 82.2 24 5.7 42.2
14:55 1025 30.27 854 25.22 26.8 80.2 25 5.1 41.2
15:00 1025 30.27 854 25.22 27.6 81.8 20 3.1 37.7
15:05 1025 30.27 854 25.22 28.3 83 20 3.2 37.7
15:10 1025 30.27 854 25.22 27.6 81.6 21 3.6 38.5
15:15 1025 30.27 854 25.22 26.5 79.7 23 4.2 39.5
15:20 1025 30.27 854 25.22 27 80.7 22 3.7 38.6
15:25 1025 30.27 854 25.22 26.6 79.9 21 2.8 37
15:30 1025 30.27 854 25.22 27.5 81.4 18 1.3 34.3
15:35 1025 30.27 854 25.22 28.1 82.6 18 1.9 35.4
15:40 1025 30.27 854 25.22 27.6 81.7 19 2.5 36.5
15:45 1025 30.27 854 25.22 27.3 81.2 19 2.3 36.2
15:50 1025 30.27 854 25.22 27.7 81.8 22 4.3 39.7
15:55 1025 30.27 854 25.22 27.8 82 19 2.5 36.4
16:00 1025 30.27 854 25.22 27.8 82 20 3.3 38
16:05 1025 30.27 854 25.22 27.8 82.1 20 3.3 38
16:10 1025 30.27 854 25.22 27.8 82 22 4.4 39.9
16:15 1025 30.27 854 25.22 27.7 81.8 21 3.9 39
16:20 1025 30.27 854 25.22 28.2 82.7 21 4.1 39.4
16:25 1025 30.27 854 25.22 27.7 81.9 23 5.3 41.6
16:30 1025 30.27 854 25.22 27.9 82.1 20 3.4 38.1
16:35 1025 30.27 854 25.22 28.7 83.7 21 4.4 40
16:40 1025 30.27 854 25.22 28.9 84 21 4.5 40.2
16:45 1025 30.27 854 25.22 28.9 84 19 3.4 38.1
16:50 1025 30.27 854 25.22 28.1 82.6 20 3.4 38.2
16:55 1025 30.27 854 25.22 28.1 82.7 19 2.4 36.3
17:00 1025 30.27 854 25.22 28.2 82.8 19 2.5 36.5
17:05 1025 30.27 854 25.22 28.7 83.6 19 3.1 37.5
17:10 1024 30.24 854 25.22 28.7 83.7 19 2.9 37.2
17:15 1024 30.24 854 25.22 29.2 84.5 19 3.2 37.7
17:20 1024 30.24 854 25.22 28.9 84 21 4.7 40.4
17:25 1024 30.24 854 25.22 28.4 83.1 21 4.3 39.7
17:30 1024 30.24 854 25.22 28.5 83.3 23 5.6 42.2
17:35 1024 30.24 854 25.22 28.2 82.8 22 5 41.1
17:40 1024 30.24 854 25.22 27.9 82.3 22 4.9 40.8
17:45 1024 30.24 854 25.22 27.9 82.3 23 5.3 41.5
17:50 1024 30.24 854 25.22 27.4 81.4 23 5.1 41.1
17:55 1024 30.24 854 25.22 26.9 80.4 23 4.1 39.4
18:00 1024 30.24 853 25.19 26.9 80.4 23 4.4 40
18:05 1024 30.24 853 25.19 27.1 80.7 23 4.5 40.1
18:10 1024 30.24 853 25.19 26.6 79.9 29 7.5 45.5
18:15 1024 30.24 853 25.19 26.1 78.9 32 8.2 46.8
18:20 1024 30.24 853 25.19 25.4 77.7 33 8 46.4
18:25 1024 30.24 853 25.19 25 77 33 7.9 46.2
18:30 1024 30.24 853 25.19 24.8 76.6 33 7.9 46.1
18:35 1024 30.24 853 25.19 24.6 76.3 34 8 46.3
18:40 1024 30.24 853 25.19 24.5 76 34 7.7 45.8
18:45 1024 30.24 853 25.19 24.4 75.8 35 8.1 46.5
18:50 1024 30.24 853 25.19 24.3 75.7 35 8 46.3
18:55 1024 30.24 853 25.19 24.1 75.4 34 7.5 45.5
19:00 1024 30.24 853 25.19 24 75.1 34 7.5 45.6
19:05 1024 30.24 853 25.19 23.9 74.9 35 7.5 45.6
19:10 1024 30.24 854 25.22 23.7 74.7 35 7.6 45.7
19:15 1024 30.24 854 25.22 23.6 74.5 35 7.4 45.3
19:20 1024 30.24 854 25.22 23.6 74.4 36 7.8 46
19:25 1024 30.24 854 25.22 23.4 74 37 8.1 46.6
19:30 1024 30.24 854 25.22 23.1 73.6 38 8.1 46.6
19:35 1024 30.24 854 25.22 22.9 73.3 38 7.9 46.2
19:40 1024 30.24 854 25.22 22.9 73.1 38 7.9 46.2
19:45 1024 30.24 854 25.22 22.7 72.8 37 7.5 45.4
19:50 1024 30.24 854 25.22 22.5 72.6 38 7.6 45.6
19:55 1025 30.27 854 25.22 22.3 72.2 38 7.6 45.7
20:00 1025 30.27 854 25.22 22.2 71.9 39 7.7 45.9
20:05 1025 30.27 854 25.22 22 71.5 40 7.9 46.1
20:10 1025 30.27 854 25.22 21.9 71.4 40 7.7 45.9
20:15 1025 30.27 854 25.22 21.7 71.1 40 7.6 45.7
20:20 1025 30.27 854 25.22 21.6 70.8 39 7.4 45.3
20:25 1025 30.27 854 25.22 21.5 70.7 40 7.5 45.5
20:30 1025 30.27 854 25.22 21.4 70.5 40 7.4 45.2
20:35 1025 30.27 854 25.22 21.3 70.4 40 7.5 45.5
20:40 1025 30.27 854 25.22 21.2 70.1 41 7.6 45.7
20:45 1025 30.27 854 25.22 21 69.8 42 7.7 45.8
20:50 1025 30.27 854 25.22 20.8 69.4 43 7.8 46
20:55 1025 30.27 854 25.22 20.8 69.4 42 7.6 45.8
21:00 1025 30.27 854 25.22 20.8 69.4 43 7.8 46
21:05 1025 30.27 854 25.22 20.5 68.9 43 7.8 46.1
21:10 1025 30.27 854 25.22 20.4 68.8 43 7.7 45.8
21:15 1025 30.27 854 25.22 20.4 68.8 44 7.8 46
21:20 1025 30.27 854 25.22 20.4 68.6 44 7.8 46
21:25 1025 30.27 854 25.22 20.3 68.5 45 7.9 46.3
21:30 1025 30.27 854 25.22 20.1 68.2 45 7.8 46
21:35 1025 30.27 854 25.22 20 68.1 45 7.9 46.2
21:40 1025 30.27 854 25.22 19.9 67.8 45 7.7 45.9
21:45 1025 30.27 854 25.22 19.9 67.9 45 7.7 45.8
21:50 1025 30.27 854 25.22 19.9 67.7 45 7.6 45.8
21:55 1025 30.27 855 25.25 19.8 67.6 45 7.7 45.8
22:00 1025 30.27 855 25.25 19.7 67.4 45 7.6 45.7
22:05 1025 30.27 855 25.25 19.6 67.2 45 7.5 45.6
22:10 1025 30.27 855 25.25 19.5 67.1 46 7.6 45.6
22:15 1025 30.27 855 25.25 19.4 67 46 7.5 45.5
22:20 1025 30.27 855 25.25 19.3 66.8 46 7.6 45.7
22:25 1025 30.27 855 25.25 19.2 66.5 47 7.7 45.8
22:30 1025 30.27 855 25.25 19.1 66.4 47 7.6 45.7
22:35 1025 30.27 855 25.25 19 66.2 47 7.7 45.8
22:40 1025 30.27 855 25.25 18.9 66 48 7.7 45.9
22:45 1025 30.27 855 25.25 18.8 65.8 49 7.8 46.1
22:50 1025 30.27 855 25.25 18.6 65.4 49 7.8 46.1
22:55 1025 30.27 854 25.22 18.5 65.2 49 7.7 45.9
23:00 1025 30.27 854 25.22 18.4 65.1 50 7.9 46.2
23:05 1025 30.27 854 25.22 18.2 64.8 50 7.9 46.2
23:10 1025 30.27 854 25.22 18.1 64.6 51 7.9 46.2
23:15 1025 30.27 854 25.22 18 64.4 51 8 46.3
23:20 1025 30.27 854 25.22 17.9 64.2 52 7.9 46.3
23:25 1025 30.27 854 25.22 17.8 64.1 52 8 46.4
23:30 1025 30.27 854 25.22 17.7 63.9 53 8.1 46.5
23:35 1025 30.27 854 25.22 17.6 63.6 53 8 46.3
23:40 1025 30.27 854 25.22 17.5 63.5 53 8 46.4
23:45 1025 30.27 854 25.22 17.5 63.4 53 8 46.4
23:50 1025 30.27 854 25.22 17.4 63.4 54 8.1 46.5
23:55 1025 30.27 855 25.25 17.3 63.2 54 8.1 46.6
24:00 1025 30.27 855 25.25 17.3 63.1 54 8.1 46.5